createdAt,value
2022-10-05T00:02:49.222Z,43.35
2022-10-05T00:07:51.452Z,43.31
2022-10-05T00:12:52.816Z,43.17
2022-10-05T00:17:54.181Z,43.41
2022-10-05T00:23:00.672Z,43.26
2022-10-05T00:28:02.053Z,43.27
2022-10-05T00:33:03.450Z,43.14
2022-10-05T00:38:04.809Z,42.88
2022-10-05T00:43:18.856Z,43.25
2022-10-05T00:48:38.916Z,43.15
2022-10-05T00:53:54.272Z,43.09
2022-10-05T00:59:13.717Z,42.94
2022-10-05T01:04:30.068Z,43.08
2022-10-05T01:09:50.417Z,43.23
2022-10-05T01:15:02.329Z,43.10
2022-10-05T01:20:30.110Z,43.06
2022-10-05T01:25:59.998Z,43.31
2022-10-05T01:31:14.359Z,42.96
2022-10-05T01:36:28.573Z,42.96
2022-10-05T01:41:41.284Z,43.11
2022-10-05T01:47:09.836Z,43.17
2022-10-05T01:52:20.461Z,43.10
2022-10-05T01:57:43.417Z,42.86
2022-10-05T02:02:58.801Z,43.09
2022-10-05T02:08:01.456Z,43.12
2022-10-05T02:13:28.033Z,42.90
2022-10-05T02:18:33.966Z,43.02
2022-10-05T02:23:36.295Z,43.18
2022-10-05T02:28:50.920Z,42.86
2022-10-05T02:33:52.276Z,43.12
2022-10-05T02:39:08.632Z,42.96
2022-10-05T02:44:12.841Z,43.29
2022-10-05T02:49:35.716Z,42.93
2022-10-05T02:54:51.147Z,42.91
2022-10-05T03:00:17.348Z,43.19
2022-10-05T03:05:31.864Z,42.96
2022-10-05T03:11:10.609Z,42.68
2022-10-05T03:16:30.104Z,43.03
2022-10-05T03:21:34.311Z,42.95
2022-10-05T03:26:45.022Z,42.87
2022-10-05T03:31:50.757Z,43.01
2022-10-05T03:37:15.228Z,43.03
2022-10-05T03:42:29.086Z,43.04
2022-10-05T03:47:41.897Z,43.15
2022-10-05T03:52:55.187Z,43.10
2022-10-05T03:57:58.204Z,43.05
2022-10-05T04:03:15.812Z,42.98
2022-10-05T04:08:43.068Z,42.90
2022-10-05T04:13:52.387Z,42.87
2022-10-05T04:19:12.914Z,43.09
2022-10-05T04:24:37.585Z,42.75
2022-10-05T04:29:47.789Z,42.56
2022-10-05T04:34:51.740Z,42.19
2022-10-05T04:40:17.733Z,41.80
2022-10-05T04:45:31.216Z,41.55
2022-10-05T04:50:49.838Z,41.30
2022-10-05T04:56:06.334Z,41.22
2022-10-05T05:01:32.450Z,41.20
2022-10-05T05:06:38.416Z,40.78
2022-10-05T05:11:39.576Z,40.61
2022-10-05T05:16:42.197Z,40.67
2022-10-05T05:22:06.952Z,40.72
2022-10-05T05:27:29.897Z,40.76
2022-10-05T05:33:08.957Z,40.72
2022-10-05T05:38:35.205Z,40.55
2022-10-05T05:43:50.544Z,40.72
2022-10-05T05:48:52.196Z,40.52
2022-10-05T05:54:20.584Z,40.68
2022-10-05T05:59:32.587Z,40.45
2022-10-05T06:05:08.622Z,40.71
2022-10-05T06:10:29.718Z,40.86
2022-10-05T06:15:35.725Z,40.77
2022-10-05T06:20:40.388Z,40.50
2022-10-05T06:25:49.484Z,40.72
2022-10-05T06:31:01.790Z,40.77
2022-10-05T06:36:22.376Z,40.68
2022-10-05T06:41:54.045Z,40.49
2022-10-05T06:46:55.245Z,40.22
2022-10-05T06:52:01.378Z,40.36
2022-10-05T06:57:15.311Z,40.40
2022-10-05T07:02:55.677Z,40.25
2022-10-05T07:08:05.758Z,40.30
2022-10-05T07:13:25.673Z,40.42
2022-10-05T07:18:48.512Z,40.33
2022-10-05T07:24:12.408Z,40.68
2022-10-05T07:29:28.348Z,40.43
2022-10-05T07:34:39.761Z,40.59
2022-10-05T07:40:01.331Z,40.71
2022-10-05T07:45:29.089Z,40.54
2022-10-05T07:50:42.417Z,40.84
2022-10-05T07:55:46.937Z,40.94
2022-10-05T08:01:06.444Z,40.71
2022-10-05T08:06:10.774Z,40.63
2022-10-05T08:11:17.509Z,40.89
2022-10-05T08:16:19.140Z,40.91
2022-10-05T08:21:36.610Z,40.96
2022-10-05T08:26:48.965Z,41.17
2022-10-05T08:31:52.060Z,40.81
2022-10-05T08:37:07.584Z,41.23
2022-10-05T08:42:21.093Z,41.44
2022-10-05T08:47:43.866Z,41.34
2022-10-05T08:53:06.845Z,41.50
2022-10-05T08:58:44.869Z,41.28
2022-10-05T09:04:12.542Z,41.42
2022-10-05T09:09:25.256Z,41.42
2022-10-05T09:14:39.055Z,41.35
2022-10-05T09:19:53.136Z,41.48
2022-10-05T09:24:59.185Z,41.52
2022-10-05T09:30:24.313Z,41.39
2022-10-05T09:35:40.785Z,41.37
2022-10-05T09:41:32.560Z,41.61
2022-10-05T09:46:45.674Z,41.67
2022-10-05T09:51:54.343Z,41.67
2022-10-05T09:57:14.305Z,41.63
2022-10-05T10:02:48.422Z,41.79
2022-10-05T10:07:56.636Z,42.37
2022-10-05T10:13:35.529Z,42.04
2022-10-05T10:18:45.692Z,42.19
2022-10-05T10:24:00.185Z,42.04
2022-10-05T10:29:30.806Z,42.35
2022-10-05T10:35:00.492Z,42.45
2022-10-05T10:40:25.889Z,42.33
2022-10-05T10:45:33.228Z,42.48
2022-10-05T10:50:48.594Z,42.46
2022-10-05T10:56:17.815Z,42.53
2022-10-05T11:01:43.881Z,42.78
2022-10-05T11:07:03.893Z,42.73
2022-10-05T11:12:34.203Z,42.61
2022-10-05T11:17:58.584Z,42.84
2022-10-05T11:23:18.705Z,43.12
2022-10-05T11:28:53.225Z,42.80
2022-10-05T11:34:20.952Z,42.90
2022-10-05T11:39:37.972Z,42.91
2022-10-05T11:45:21.672Z,42.76
2022-10-05T11:50:38.310Z,42.74
2022-10-05T11:55:45.108Z,42.73
2022-10-05T12:00:50.028Z,42.84
2022-10-05T12:06:09.645Z,42.89
2022-10-05T12:11:34.900Z,42.71
2022-10-05T12:16:58.774Z,42.64
2022-10-05T12:22:15.224Z,42.69
2022-10-05T12:27:24.269Z,42.70
2022-10-05T12:32:26.792Z,42.83
2022-10-05T12:37:42.289Z,43.17
2022-10-05T12:42:50.186Z,43.05
2022-10-05T12:48:18.610Z,43.09
2022-10-05T12:53:48.181Z,43.17
2022-10-05T12:59:11.645Z,43.20
2022-10-05T13:04:56.813Z,43.33
2022-10-05T13:10:19.817Z,43.30
2022-10-05T13:15:48.020Z,43.79
2022-10-05T13:20:59.510Z,43.59
2022-10-05T13:26:07.769Z,43.71
2022-10-05T13:31:13.358Z,43.80
2022-10-05T13:36:17.177Z,43.63
2022-10-05T13:41:40.628Z,43.76
2022-10-05T13:46:48.630Z,43.68
2022-10-05T13:52:08.657Z,43.65
2022-10-05T13:57:45.048Z,43.47
2022-10-05T14:02:49.786Z,43.55
2022-10-05T14:08:03.882Z,43.57
2022-10-05T14:13:26.418Z,43.57
2022-10-05T14:18:29.565Z,43.53
2022-10-05T14:23:30.984Z,43.45
2022-10-05T14:28:34.046Z,43.51
2022-10-05T14:33:35.675Z,43.51
2022-10-05T14:38:57.626Z,43.67
2022-10-05T14:44:24.363Z,43.46
2022-10-05T14:49:37.201Z,43.53
2022-10-05T14:54:49.056Z,43.73
2022-10-05T15:00:24.066Z,43.56
2022-10-05T15:05:32.492Z,43.63
2022-10-05T15:10:52.672Z,43.70
2022-10-05T15:16:19.177Z,43.59
2022-10-05T15:21:43.125Z,43.75
2022-10-05T15:26:50.422Z,43.77
2022-10-05T15:31:59.912Z,44.20
2022-10-05T15:37:11.669Z,44.01
2022-10-05T15:42:22.556Z,43.84
2022-10-05T15:47:43.942Z,44.17
2022-10-05T15:53:14.621Z,44.27
2022-10-05T15:58:51.628Z,44.35
2022-10-05T16:04:05.734Z,44.36
2022-10-05T16:09:35.367Z,44.55
2022-10-05T16:14:42.972Z,44.72
2022-10-05T16:19:56.789Z,44.87
2022-10-05T16:25:13.712Z,45.06
2022-10-05T16:30:22.467Z,45.12
2022-10-05T16:35:39.172Z,45.16
2022-10-05T16:40:57.272Z,45.42
2022-10-05T16:46:14.950Z,45.34
2022-10-05T16:51:45.021Z,45.58
2022-10-05T16:57:38.713Z,45.51
2022-10-05T17:03:21.069Z,45.57
2022-10-05T17:08:30.196Z,45.68
2022-10-05T17:13:57.373Z,45.77
2022-10-05T17:19:15.071Z,45.79
2022-10-05T17:24:41.540Z,45.65
2022-10-05T17:29:51.676Z,46.01
2022-10-05T17:34:58.993Z,45.97
2022-10-05T17:40:02.316Z,45.90
2022-10-05T17:45:11.804Z,45.65
2022-10-05T17:50:32.076Z,45.72
2022-10-05T17:55:33.962Z,45.75
2022-10-05T18:00:40.561Z,46.02
2022-10-05T18:05:41.940Z,45.85
2022-10-05T18:11:24.989Z,45.89
2022-10-05T18:17:04.051Z,45.77
2022-10-05T18:22:17.161Z,45.70
2022-10-05T18:27:37.041Z,45.51
2022-10-05T18:32:45.228Z,45.51
2022-10-05T18:37:52.712Z,45.33
2022-10-05T18:42:57.011Z,45.65
2022-10-05T18:48:24.022Z,45.73
2022-10-05T18:53:53.881Z,45.87
2022-10-05T18:59:32.062Z,45.75
2022-10-05T19:04:54.481Z,45.46
2022-10-05T19:10:28.752Z,45.17
2022-10-05T19:15:50.211Z,45.25
2022-10-05T19:21:26.980Z,45.38
2022-10-05T19:26:51.630Z,45.37
2022-10-05T19:32:08.696Z,45.31
2022-10-05T19:37:26.161Z,45.33
2022-10-05T19:43:01.225Z,45.04
2022-10-05T19:48:27.515Z,45.26
2022-10-05T19:53:39.673Z,45.32
2022-10-05T19:58:41.031Z,45.25
2022-10-05T20:03:42.929Z,45.27
2022-10-05T20:08:46.368Z,45.45
2022-10-05T20:13:53.333Z,45.39
2022-10-05T20:19:13.348Z,45.40
2022-10-05T20:24:21.061Z,45.28
2022-10-05T20:29:22.440Z,45.62
2022-10-05T20:34:23.901Z,45.45
2022-10-05T20:39:25.260Z,45.52
2022-10-05T20:44:26.884Z,45.30
2022-10-05T20:49:30.830Z,45.82
2022-10-05T20:54:32.243Z,45.33
2022-10-05T20:59:33.986Z,45.48
2022-10-05T21:04:40.992Z,45.77
2022-10-05T21:09:43.710Z,45.81
2022-10-05T21:14:45.596Z,45.67
2022-10-05T21:19:47.130Z,45.58
2022-10-05T21:24:48.493Z,45.80
2022-10-05T21:29:49.908Z,45.83
2022-10-05T21:34:51.278Z,45.80
2022-10-05T21:39:52.649Z,45.89
2022-10-05T21:44:54.044Z,45.90
2022-10-05T21:49:55.412Z,45.82
2022-10-05T21:54:56.768Z,45.76
2022-10-05T21:59:59.328Z,45.89
2022-10-05T22:05:00.968Z,45.92
2022-10-05T22:10:02.635Z,46.01
2022-10-05T22:15:06.154Z,45.84
2022-10-05T22:20:10.389Z,45.94
2022-10-05T22:25:11.753Z,45.97
2022-10-05T22:30:14.764Z,46.02
2022-10-05T22:35:16.128Z,45.96
2022-10-05T22:40:17.509Z,45.95
2022-10-05T22:45:18.896Z,46.05
2022-10-05T22:50:20.446Z,45.98
2022-10-05T22:55:21.804Z,46.11
2022-10-05T23:00:35.221Z,46.30
2022-10-05T23:05:44.509Z,46.38
2022-10-05T23:10:45.863Z,46.14
2022-10-05T23:20:55.112Z,46.28
2022-10-05T23:26:00.050Z,46.54
2022-10-05T23:31:02.953Z,46.44
2022-10-05T23:41:09.797Z,46.70
2022-10-05T23:46:11.288Z,46.93
2022-10-05T23:51:13.091Z,46.79
2022-10-05T23:56:14.476Z,46.89
